Time;durP1;ratioP1;P1;durP2;ratioP2;P2;SDS_P1;SDS_P2;PMS_P1;PMS_P2;Temp;Humidity;BMP_temperature;BMP_pressure;BME280_temperature;BME280_humidity;BME280_pressure;Samples;Min_cycle;Max_cycle;Signal;HPM_P1;HPM_P2
2022/05/19 00:00:29;;;;;;;;;;;;;;;;;;1913564;28;7001;-65
2022/05/19 00:01:27;;;;;;;;;;;;;;;;;;1913077;28;7042;-64
2022/05/19 00:02:25;;;;;;;;;;;;;;;;;;1907241;28;7096;-66
2022/05/19 00:03:22;;;;;;;;;;;;;;;;;;1907785;28;7010;-66
2022/05/19 00:04:20;;;;;;;;;;;;;;;;;;1911109;28;7195;-67
2022/05/19 00:05:18;;;;;;;;;;;;;;;;;;1912495;28;7428;-67
2022/05/19 00:06:16;;;;;;;;;;;;;;;;;;1912788;28;7092;-65
2022/05/19 00:07:14;;;;;;;;;;;;;;;;;;1911812;28;7005;-67
2022/05/19 00:08:11;;;;;;;;;;;;;;;;;;1905177;28;7046;-65
2022/05/19 00:09:09;;;;;;;;;;;;;;;;;;1906161;28;7386;-66
2022/05/19 00:10:07;;;;;;;;;;;;;;;;;;1905497;28;7037;-66
2022/05/19 00:11:07;;;;;;;;;;;;;;;;;;1904598;28;7324;-66
2022/05/19 00:12:08;;;;;;;;;;;;;;;;;;1915880;28;7009;-67
2022/05/19 00:13:05;;;;;;;;;;;;;;;;;;1919706;28;7009;-67
2022/05/19 00:14:03;;;;;;;;;;;;;;;;;;1906480;28;7100;-65
2022/05/19 00:15:01;;;;;;;;;;;;;;;;;;1907170;28;7104;-67
2022/05/19 00:15:59;;;;;;;;;;;;;;;;;;1909016;28;7013;-64
2022/05/19 00:16:57;;;;;;;;;;;;;;;;;;1905187;28;7014;-68
2022/05/19 00:17:55;;;;;;;;;;;;;;;;;;1905660;28;7324;-66
2022/05/19 00:18:52;;;;;;;;;;;;;;;;;;1905327;28;7009;-64
2022/05/19 00:19:50;;;;;;;;;;;;;;;;;;1905510;28;7376;-66
2022/05/19 00:20:47;;;;;;;;;;;;;;;;;;1907876;28;7088;-65
2022/05/19 00:21:45;;;;;;;;;;;;;;;;;;1913013;28;7105;-64
2022/05/19 00:22:42;;;;;;;;;;;;;;;;;;1912585;28;7013;-65
2022/05/19 00:23:40;;;;;;;;;;;;;;;;;;1914742;28;7107;-63
2022/05/19 00:24:37;;;;;;;;;;;;;;;;;;1911915;28;7009;-67
2022/05/19 00:25:34;;;;;;;;;;;;;;;;;;1906112;28;7317;-64
2022/05/19 00:26:32;;;;;;;;;;;;;;;;;;1912836;28;7092;-66
2022/05/19 00:27:30;;;;;;;;;;;;;;;;;;1904684;28;7088;-66
2022/05/19 00:28:27;;;;;;;;;;;;;;;;;;1912532;28;7088;-65
2022/05/19 00:29:26;;;;;;;;;;;;;;;;;;1913132;28;7005;-64
2022/05/19 00:30:23;;;;;;;;;;;;;;;;;;1911332;28;7096;-63
2022/05/19 00:31:21;;;;;;;;;;;;;;;;;;1912640;28;7009;-65
2022/05/19 00:32:19;;;;;;;;;;;;;;;;;;1912806;28;7092;-68
2022/05/19 00:33:16;;;;;;;;;;;;;;;;;;1912189;28;7049;-65
2022/05/19 00:34:14;;;;;;;;;;;;;;;;;;1906721;28;7096;-63
2022/05/19 00:35:11;;;;;;;;;;;;;;;;;;1905488;28;7025;-67
2022/05/19 00:36:10;;;;;;;;;;;;;;;;;;1905620;28;7013;-65
2022/05/19 00:37:07;;;;;;;;;;;;;;;;;;1912701;28;7108;-68
2022/05/19 00:38:05;;;;;;;;;;;;;;;;;;1912881;28;7117;-65
2022/05/19 00:39:03;;;;;;;;;;;;;;;;;;1912328;28;7132;-64
2022/05/19 00:40:01;;;;;;;;;;;;;;;;;;1912823;28;7041;-66
2022/05/19 00:40:58;;;;;;;;;;;;;;;;;;1911979;28;7002;-66
2022/05/19 00:43:11;;;;;;;;;;;;;;;;;;1912473;28;7017;-65
2022/05/19 00:44:09;;;;;;;;;;;;;;;;;;1912867;28;7013;-67
2022/05/19 00:45:07;;;;;;;;;;;;;;;;;;1912630;28;7005;-66
2022/05/19 00:46:14;;;;;;;;;;;;;;;;;;1912531;28;7444;-65
2022/05/19 00:47:17;;;;;;;;;;;;;;;;;;1907866;28;7218;-65
2022/05/19 00:48:14;;;;;;;;;;;;;;;;;;1905799;28;7017;-67
2022/05/19 00:49:11;;;;;;;;;;;;;;;;;;1904029;28;7009;-66
2022/05/19 00:50:29;;;;;;;;;;;;;;;;;;1907745;28;7017;-66
2022/05/19 00:51:37;;;;;;;;;;;;;;;;;;1901825;28;7026;-67
2022/05/19 00:52:39;;;;;;;;;;;;;;;;;;1905987;28;7009;-67
2022/05/19 00:53:43;;;;;;;;;;;;;;;;;;1912170;28;7017;-64
2022/05/19 00:55:02;;;;;;;;;;;;;;;;;;1912591;28;8103;-65
2022/05/19 00:56:01;;;;;;;;;;;;;;;;;;1907120;28;7311;-67
2022/05/19 00:57:06;;;;;;;;;;;;;;;;;;1917034;28;7432;-66
2022/05/19 00:58:12;;;;;;;;;;;;;;;;;;1918888;28;7013;-66
2022/05/19 00:59:11;;;;;;;;;;;;;;;;;;1912401;28;7009;-65
2022/05/19 01:00:10;;;;;;;;;;;;;;;;;;1906044;28;7050;-66
2022/05/19 01:01:08;;;;;;;;;;;;;;;;;;1904818;28;7021;-67
2022/05/19 01:02:09;;;;;;;;;;;;;;;;;;1905615;28;7009;-65
2022/05/19 01:03:07;;;;;;;;;;;;;;;;;;1905382;28;7002;-65
2022/05/19 01:04:19;;;;;;;;;;;;;;;;;;1907423;28;7091;-66
2022/05/19 01:05:19;;;;;;;;;;;;;;;;;;1912666;28;7017;-68
2022/05/19 01:06:19;;;;;;;;;;;;;;;;;;1907710;28;7046;-65
2022/05/19 01:07:24;;;;;;;;;;;;;;;;;;1912377;28;7030;-67
2022/05/19 01:08:34;;;;;;;;;;;;;;;;;;1912335;28;7034;-67
2022/05/19 01:09:34;;;;;;;;;;;;;;;;;;1912004;28;7005;-64
2022/05/19 01:10:32;;;;;;;;;;;;;;;;;;1904801;28;7017;-63
2022/05/19 01:11:30;;;;;;;;;;;;;;;;;;1904740;28;8020;-65
2022/05/19 01:12:29;;;;;;;;;;;;;;;;;;1905021;28;7177;-66
2022/05/19 01:13:31;;;;;;;;;;;;;;;;;;1905714;28;7025;-65
2022/05/19 01:14:29;;;;;;;;;;;;;;;;;;1905631;28;7456;-63
2022/05/19 01:15:26;;;;;;;;;;;;;;;;;;1905149;28;7029;-66
2022/05/19 01:16:25;;;;;;;;;;;;;;;;;;1904016;28;7017;-66
2022/05/19 01:17:23;;;;;;;;;;;;;;;;;;1904890;28;7535;-65
2022/05/19 01:18:21;;;;;;;;;;;;;;;;;;1919267;28;7104;-64
2022/05/19 01:19:32;;;;;;;;;;;;;;;;;;1919125;28;7355;-65
2022/05/19 01:20:30;;;;;;;;;;;;;;;;;;1906259;28;7183;-65
2022/05/19 01:21:29;;;;;;;;;;;;;;;;;;1904384;28;7179;-64
2022/05/19 01:22:46;;;;;;;;;;;;;;;;;;1904326;28;7006;-65
2022/05/19 01:23:56;;;;;;;;;;;;;;;;;;1904428;28;7021;-66
2022/05/19 01:25:12;;;;;;;;;;;;;;;;;;1906266;28;7140;-63
2022/05/19 01:26:12;;;;;;;;;;;;;;;;;;1919032;28;7550;-67
2022/05/19 01:27:09;;;;;;;;;;;;;;;;;;1911481;28;7005;-66
2022/05/19 01:28:07;;;;;;;;;;;;;;;;;;1906802;28;7121;-65
2022/05/19 01:29:07;;;;;;;;;;;;;;;;;;1905381;28;7009;-64
2022/05/19 01:30:07;;;;;;;;;;;;;;;;;;1905050;28;7097;-64
2022/05/19 01:31:05;;;;;;;;;;;;;;;;;;1909002;28;7005;-64
2022/05/19 01:32:03;;;;;;;;;;;;;;;;;;1911841;28;7006;-66
2022/05/19 01:33:01;;;;;;;;;;;;;;;;;;1911917;28;7034;-66
2022/05/19 01:33:58;;;;;;;;;;;;;;;;;;1912229;28;8004;-65
2022/05/19 01:34:58;;;;;;;;;;;;;;;;;;1906001;28;7124;-67
2022/05/19 01:35:55;;;;;;;;;;;;;;;;;;1905657;28;7024;-65
2022/05/19 01:36:53;;;;;;;;;;;;;;;;;;1905132;28;7104;-66
2022/05/19 01:37:51;;;;;;;;;;;;;;;;;;1905543;28;7013;-64
2022/05/19 01:38:56;;;;;;;;;;;;;;;;;;1912430;28;7013;-65
2022/05/19 01:39:58;;;;;;;;;;;;;;;;;;1911696;28;7010;-65
2022/05/19 01:40:55;;;;;;;;;;;;;;;;;;1912413;28;7021;-68
2022/05/19 01:42:08;;;;;;;;;;;;;;;;;;1912008;28;7014;-67
2022/05/19 01:43:08;;;;;;;;;;;;;;;;;;1911293;28;7142;-64
2022/05/19 01:44:31;;;;;;;;;;;;;;;;;;1904699;28;7522;-66
2022/05/19 01:45:34;;;;;;;;;;;;;;;;;;1904932;28;7053;-62
2022/05/19 01:46:33;;;;;;;;;;;;;;;;;;1904536;28;7006;-66
2022/05/19 01:47:42;;;;;;;;;;;;;;;;;;1904367;28;7159;-67
2022/05/19 01:48:48;;;;;;;;;;;;;;;;;;1904930;28;7017;-66
2022/05/19 01:50:04;;;;;;;;;;;;;;;;;;1905128;28;7116;-67
2022/05/19 01:51:21;;;;;;;;;;;;;;;;;;1912466;28;7021;-66
2022/05/19 01:52:31;;;;;;;;;;;;;;;;;;1916850;28;7009;-65
2022/05/19 01:53:44;;;;;;;;;;;;;;;;;;1912044;28;7013;-66
2022/05/19 01:54:53;;;;;;;;;;;;;;;;;;1912189;28;7225;-66
2022/05/19 01:56:29;;;;;;;;;;;;;;;;;;1912131;28;7042;-67
2022/05/19 01:57:30;;;;;;;;;;;;;;;;;;1888599;28;7006;-69
2022/05/19 01:58:46;;;;;;;;;;;;;;;;;;1887977;28;7006;-64
2022/05/19 01:59:49;;;;;;;;;;;;;;;;;;1881749;28;7413;-67
2022/05/19 02:00:53;;;;;;;;;;;;;;;;;;1881253;28;7101;-66
2022/05/19 02:01:59;;;;;;;;;;;;;;;;;;1885575;28;7038;-65
2022/05/19 02:02:56;;;;;;;;;;;;;;;;;;1892316;28;7473;-66
2022/05/19 02:04:02;;;;;;;;;;;;;;;;;;1910916;28;7116;-64
2022/05/19 02:05:07;;;;;;;;;;;;;;;;;;1905251;28;7009;-65
2022/05/19 02:06:15;;;;;;;;;;;;;;;;;;1906407;28;7001;-65
2022/05/19 02:07:16;;;;;;;;;;;;;;;;;;1904637;28;7037;-66
2022/05/19 02:08:18;;;;;;;;;;;;;;;;;;1905005;28;7005;-64
2022/05/19 02:09:20;;;;;;;;;;;;;;;;;;1904628;28;7005;-64
2022/05/19 02:10:23;;;;;;;;;;;;;;;;;;1904634;28;7006;-65
2022/05/19 02:11:28;;;;;;;;;;;;;;;;;;1911341;28;7331;-66
2022/05/19 02:12:29;;;;;;;;;;;;;;;;;;1914003;28;7005;-66
2022/05/19 02:13:30;;;;;;;;;;;;;;;;;;1912099;28;7041;-65
2022/05/19 02:14:33;;;;;;;;;;;;;;;;;;1912282;28;7096;-65
2022/05/19 02:15:34;;;;;;;;;;;;;;;;;;1909109;28;7109;-68
2022/05/19 02:16:32;;;;;;;;;;;;;;;;;;1910859;28;7148;-65
2022/05/19 02:17:32;;;;;;;;;;;;;;;;;;1908724;28;7001;-64
2022/05/19 02:18:30;;;;;;;;;;;;;;;;;;1904765;28;7202;-66
2022/05/19 02:19:32;;;;;;;;;;;;;;;;;;1904467;28;7006;-66
2022/05/19 02:20:32;;;;;;;;;;;;;;;;;;1904622;28;7092;-66
2022/05/19 02:21:29;;;;;;;;;;;;;;;;;;1904208;28;7013;-66
2022/05/19 02:22:33;;;;;;;;;;;;;;;;;;1909570;28;7013;-66
2022/05/19 02:23:32;;;;;;;;;;;;;;;;;;1909712;28;7092;-65
2022/05/19 02:24:34;;;;;;;;;;;;;;;;;;1911831;28;8007;-67
2022/05/19 02:25:42;;;;;;;;;;;;;;;;;;1905094;28;7005;-65
2022/05/19 02:26:40;;;;;;;;;;;;;;;;;;1904588;28;7030;-63
2022/05/19 02:27:42;;;;;;;;;;;;;;;;;;1904937;28;7092;-64
2022/05/19 02:28:49;;;;;;;;;;;;;;;;;;1911986;28;7113;-66
2022/05/19 02:29:47;;;;;;;;;;;;;;;;;;1911353;28;7041;-64
2022/05/19 02:30:44;;;;;;;;;;;;;;;;;;1911209;28;7141;-66
2022/05/19 02:31:43;;;;;;;;;;;;;;;;;;1911043;28;7092;-67
2022/05/19 02:32:41;;;;;;;;;;;;;;;;;;1911606;28;7009;-64
2022/05/19 02:33:38;;;;;;;;;;;;;;;;;;1911405;28;7001;-64
2022/05/19 02:34:36;;;;;;;;;;;;;;;;;;1912430;28;7105;-67
2022/05/19 02:35:33;;;;;;;;;;;;;;;;;;1914112;28;7006;-64
2022/05/19 02:36:31;;;;;;;;;;;;;;;;;;1914488;28;7009;-64
2022/05/19 02:37:28;;;;;;;;;;;;;;;;;;1914794;28;7032;-67
2022/05/19 02:38:26;;;;;;;;;;;;;;;;;;1913309;28;7057;-66
2022/05/19 02:39:23;;;;;;;;;;;;;;;;;;1906332;28;7092;-63
2022/05/19 02:40:23;;;;;;;;;;;;;;;;;;1907340;28;7029;-65
2022/05/19 02:41:20;;;;;;;;;;;;;;;;;;1911149;28;7005;-64
2022/05/19 02:42:18;;;;;;;;;;;;;;;;;;1906600;28;7009;-69
2022/05/19 02:43:16;;;;;;;;;;;;;;;;;;1906293;28;7002;-65
2022/05/19 02:44:14;;;;;;;;;;;;;;;;;;1906884;28;7009;-64
2022/05/19 02:45:13;;;;;;;;;;;;;;;;;;1911667;28;7009;-66
2022/05/19 02:46:11;;;;;;;;;;;;;;;;;;1905886;28;7013;-67
2022/05/19 02:47:08;;;;;;;;;;;;;;;;;;1905998;28;7049;-63
2022/05/19 02:48:07;;;;;;;;;;;;;;;;;;1907248;28;7100;-64
2022/05/19 02:49:04;;;;;;;;;;;;;;;;;;1907552;28;7103;-65
2022/05/19 02:50:02;;;;;;;;;;;;;;;;;;1907063;28;7030;-66
2022/05/19 02:51:00;;;;;;;;;;;;;;;;;;1908421;28;7005;-65
2022/05/19 02:51:57;;;;;;;;;;;;;;;;;;1910316;28;7005;-65
2022/05/19 02:52:55;;;;;;;;;;;;;;;;;;1914536;28;7017;-67
2022/05/19 02:53:52;;;;;;;;;;;;;;;;;;1914575;28;8058;-66
2022/05/19 02:54:50;;;;;;;;;;;;;;;;;;1914053;28;7088;-66
2022/05/19 02:55:47;;;;;;;;;;;;;;;;;;1915265;28;7041;-66
2022/05/19 02:56:44;;;;;;;;;;;;;;;;;;1914401;28;7040;-65
2022/05/19 02:57:42;;;;;;;;;;;;;;;;;;1913314;28;7100;-64
2022/05/19 02:58:40;;;;;;;;;;;;;;;;;;1910304;28;7042;-64
2022/05/19 02:59:37;;;;;;;;;;;;;;;;;;1914301;28;7022;-65
2022/05/19 03:00:35;;;;;;;;;;;;;;;;;;1914153;28;7293;-65
2022/05/19 03:01:32;;;;;;;;;;;;;;;;;;1914672;28;7009;-64
2022/05/19 03:02:30;;;;;;;;;;;;;;;;;;1906221;28;7045;-64
2022/05/19 03:03:28;;;;;;;;;;;;;;;;;;1907492;28;7009;-63
2022/05/19 03:04:25;;;;;;;;;;;;;;;;;;1907575;28;7096;-66
2022/05/19 03:05:24;;;;;;;;;;;;;;;;;;1906885;28;7038;-66
2022/05/19 03:06:21;;;;;;;;;;;;;;;;;;1905983;28;7049;-67
2022/05/19 03:07:20;;;;;;;;;;;;;;;;;;1906489;28;8047;-68
2022/05/19 03:08:17;;;;;;;;;;;;;;;;;;1911541;28;7024;-66
2022/05/19 03:09:15;;;;;;;;;;;;;;;;;;1906895;28;7005;-63
2022/05/19 03:10:13;;;;;;;;;;;;;;;;;;1907153;28;7009;-64
2022/05/19 03:11:10;;;;;;;;;;;;;;;;;;1907651;28;7013;-66
2022/05/19 03:12:11;;;;;;;;;;;;;;;;;;1907370;28;7042;-68
2022/05/19 03:13:15;;;;;;;;;;;;;;;;;;1914137;28;7092;-66
2022/05/19 03:14:13;;;;;;;;;;;;;;;;;;1911550;28;7013;-65
2022/05/19 03:15:11;;;;;;;;;;;;;;;;;;1911227;28;7242;-64
2022/05/19 03:16:09;;;;;;;;;;;;;;;;;;1914581;28;7271;-65
2022/05/19 03:17:07;;;;;;;;;;;;;;;;;;1911969;28;7380;-66
2022/05/19 03:18:04;;;;;;;;;;;;;;;;;;1914324;28;7025;-65
2022/05/19 03:19:02;;;;;;;;;;;;;;;;;;1912201;28;7005;-66
2022/05/19 03:20:00;;;;;;;;;;;;;;;;;;1906794;28;7013;-67
2022/05/19 03:20:57;;;;;;;;;;;;;;;;;;1907166;28;7120;-67
2022/05/19 03:21:55;;;;;;;;;;;;;;;;;;1907596;28;7005;-65
2022/05/19 03:22:52;;;;;;;;;;;;;;;;;;1914253;28;7344;-63
2022/05/19 03:23:50;;;;;;;;;;;;;;;;;;1914305;28;7088;-65
2022/05/19 03:24:47;;;;;;;;;;;;;;;;;;1914197;28;7013;-64
2022/05/19 03:25:45;;;;;;;;;;;;;;;;;;1914363;28;7328;-67
2022/05/19 03:26:42;;;;;;;;;;;;;;;;;;1908959;28;8059;-66
2022/05/19 03:27:40;;;;;;;;;;;;;;;;;;1905878;28;7037;-65
2022/05/19 03:28:38;;;;;;;;;;;;;;;;;;1907827;28;7005;-66
2022/05/19 03:29:36;;;;;;;;;;;;;;;;;;1911204;28;7033;-64
2022/05/19 03:30:35;;;;;;;;;;;;;;;;;;1914345;28;7117;-64
2022/05/19 03:31:34;;;;;;;;;;;;;;;;;;1910860;28;7092;-65
2022/05/19 03:32:31;;;;;;;;;;;;;;;;;;1908915;28;7096;-67
2022/05/19 03:33:29;;;;;;;;;;;;;;;;;;1921322;28;7030;-66
2022/05/19 03:34:26;;;;;;;;;;;;;;;;;;1923501;28;7021;-64
2022/05/19 03:35:23;;;;;;;;;;;;;;;;;;1915252;28;7025;-65
2022/05/19 03:36:28;;;;;;;;;;;;;;;;;;1914181;28;7376;-68
2022/05/19 03:37:26;;;;;;;;;;;;;;;;;;1914885;28;7008;-67
2022/05/19 03:38:23;;;;;;;;;;;;;;;;;;1914316;28;7321;-64
2022/05/19 03:39:21;;;;;;;;;;;;;;;;;;1906427;28;7044;-64
2022/05/19 03:40:19;;;;;;;;;;;;;;;;;;1906535;28;7021;-65
2022/05/19 03:41:16;;;;;;;;;;;;;;;;;;1907098;28;7013;-66
2022/05/19 03:42:14;;;;;;;;;;;;;;;;;;1911678;28;7028;-67
2022/05/19 03:43:11;;;;;;;;;;;;;;;;;;1905684;28;7017;-65
2022/05/19 03:44:09;;;;;;;;;;;;;;;;;;1908104;28;7092;-67
2022/05/19 03:45:07;;;;;;;;;;;;;;;;;;1913997;28;7041;-64
2022/05/19 03:46:05;;;;;;;;;;;;;;;;;;1907608;28;7001;-64
2022/05/19 03:47:03;;;;;;;;;;;;;;;;;;1904246;28;7025;-65
2022/05/19 03:48:01;;;;;;;;;;;;;;;;;;1915976;28;7851;-66
2022/05/19 03:48:58;;;;;;;;;;;;;;;;;;1919683;28;7239;-65
2022/05/19 03:49:56;;;;;;;;;;;;;;;;;;1913491;28;7046;-64
2022/05/19 03:50:53;;;;;;;;;;;;;;;;;;1909524;28;7025;-67
2022/05/19 03:51:50;;;;;;;;;;;;;;;;;;1908530;28;7037;-66
2022/05/19 03:52:48;;;;;;;;;;;;;;;;;;1920423;28;7037;-66
2022/05/19 03:53:45;;;;;;;;;;;;;;;;;;1917388;28;7005;-69
2022/05/19 03:54:42;;;;;;;;;;;;;;;;;;1907324;28;7124;-68
2022/05/19 03:55:40;;;;;;;;;;;;;;;;;;1918748;28;7151;-66
2022/05/19 03:56:38;;;;;;;;;;;;;;;;;;1927502;28;7117;-65
2022/05/19 03:57:35;;;;;;;;;;;;;;;;;;1914742;28;7009;-67
2022/05/19 03:58:33;;;;;;;;;;;;;;;;;;1913125;28;7115;-67
2022/05/19 03:59:30;;;;;;;;;;;;;;;;;;1908805;28;7081;-66
2022/05/19 04:00:28;;;;;;;;;;;;;;;;;;1905703;28;7017;-64
2022/05/19 04:01:26;;;;;;;;;;;;;;;;;;1911106;28;7009;-66
2022/05/19 04:02:23;;;;;;;;;;;;;;;;;;1913263;28;7092;-67
2022/05/19 04:03:31;;;;;;;;;;;;;;;;;;1913380;28;7010;-63
2022/05/19 04:04:29;;;;;;;;;;;;;;;;;;1906294;28;7104;-65
2022/05/19 04:05:27;;;;;;;;;;;;;;;;;;1905471;28;7116;-64
2022/05/19 04:06:25;;;;;;;;;;;;;;;;;;1909667;28;7017;-68
2022/05/19 04:07:23;;;;;;;;;;;;;;;;;;1913189;28;7016;-64
2022/05/19 04:08:20;;;;;;;;;;;;;;;;;;1913389;28;7192;-65
2022/05/19 04:09:20;;;;;;;;;;;;;;;;;;1920086;28;7856;-67
2022/05/19 04:10:18;;;;;;;;;;;;;;;;;;1919611;28;7099;-67
2022/05/19 04:11:15;;;;;;;;;;;;;;;;;;1913861;28;7109;-67
2022/05/19 04:12:17;;;;;;;;;;;;;;;;;;1912883;28;7005;-64
2022/05/19 04:13:15;;;;;;;;;;;;;;;;;;1913190;28;7096;-64
2022/05/19 04:14:13;;;;;;;;;;;;;;;;;;1912795;28;8590;-67
2022/05/19 04:15:11;;;;;;;;;;;;;;;;;;1911862;28;7332;-65
2022/05/19 04:16:09;;;;;;;;;;;;;;;;;;1906940;28;7006;-64
2022/05/19 04:17:07;;;;;;;;;;;;;;;;;;1913716;28;7001;-65
2022/05/19 04:18:05;;;;;;;;;;;;;;;;;;1909627;28;7730;-67
2022/05/19 04:19:02;;;;;;;;;;;;;;;;;;1912502;28;7009;-64
2022/05/19 04:20:01;;;;;;;;;;;;;;;;;;1912558;28;7005;-66
2022/05/19 04:20:58;;;;;;;;;;;;;;;;;;1914631;28;7009;-67
2022/05/19 04:21:56;;;;;;;;;;;;;;;;;;1917501;28;8019;-63
2022/05/19 04:22:53;;;;;;;;;;;;;;;;;;1906516;28;7096;-66
2022/05/19 04:23:51;;;;;;;;;;;;;;;;;;1905078;28;7001;-63
2022/05/19 04:24:48;;;;;;;;;;;;;;;;;;1905684;28;7115;-64
2022/05/19 04:25:45;;;;;;;;;;;;;;;;;;1905762;28;7018;-66
2022/05/19 04:26:43;;;;;;;;;;;;;;;;;;1905712;28;7005;-66
2022/05/19 04:27:40;;;;;;;;;;;;;;;;;;1905543;28;7017;-63
2022/05/19 04:28:38;;;;;;;;;;;;;;;;;;1904930;28;7123;-65
2022/05/19 04:29:35;;;;;;;;;;;;;;;;;;1905459;28;7009;-66
2022/05/19 04:30:32;;;;;;;;;;;;;;;;;;1904492;28;7203;-65
2022/05/19 04:31:31;;;;;;;;;;;;;;;;;;1907786;28;7009;-66
2022/05/19 04:32:29;;;;;;;;;;;;;;;;;;1912333;28;7013;-64
2022/05/19 04:33:26;;;;;;;;;;;;;;;;;;1912899;28;7096;-65
2022/05/19 04:34:24;;;;;;;;;;;;;;;;;;1910231;28;7372;-64
2022/05/19 04:35:22;;;;;;;;;;;;;;;;;;1904769;28;7022;-67
2022/05/19 04:36:20;;;;;;;;;;;;;;;;;;1912756;28;7038;-64
2022/05/19 04:37:18;;;;;;;;;;;;;;;;;;1907022;28;7009;-66
2022/05/19 04:38:16;;;;;;;;;;;;;;;;;;1912457;28;7009;-67
2022/05/19 04:39:14;;;;;;;;;;;;;;;;;;1912729;28;7347;-66
2022/05/19 04:40:12;;;;;;;;;;;;;;;;;;1907950;28;7104;-65
2022/05/19 04:41:09;;;;;;;;;;;;;;;;;;1905580;28;7013;-66
2022/05/19 04:42:07;;;;;;;;;;;;;;;;;;1905582;28;7332;-65
2022/05/19 04:43:05;;;;;;;;;;;;;;;;;;1905433;28;7025;-64
2022/05/19 04:44:03;;;;;;;;;;;;;;;;;;1905782;28;7005;-65
2022/05/19 04:45:00;;;;;;;;;;;;;;;;;;1908982;28;7667;-62
2022/05/19 04:45:58;;;;;;;;;;;;;;;;;;1908960;28;7021;-67
2022/05/19 04:46:55;;;;;;;;;;;;;;;;;;1909825;28;7001;-66
2022/05/19 04:47:53;;;;;;;;;;;;;;;;;;1905960;28;7008;-67
2022/05/19 04:48:50;;;;;;;;;;;;;;;;;;1904273;28;7057;-64
2022/05/19 04:49:48;;;;;;;;;;;;;;;;;;1905529;28;7005;-66
2022/05/19 04:50:45;;;;;;;;;;;;;;;;;;1905517;28;7092;-66
2022/05/19 04:51:42;;;;;;;;;;;;;;;;;;1907058;28;7005;-65
2022/05/19 04:52:40;;;;;;;;;;;;;;;;;;1904171;28;7100;-66
2022/05/19 04:53:37;;;;;;;;;;;;;;;;;;1905476;28;7042;-65
2022/05/19 04:54:35;;;;;;;;;;;;;;;;;;1908381;28;7323;-64
2022/05/19 04:55:34;;;;;;;;;;;;;;;;;;1912364;28;7009;-66
2022/05/19 04:56:31;;;;;;;;;;;;;;;;;;1917912;28;7005;-65
2022/05/19 04:57:29;;;;;;;;;;;;;;;;;;1918947;28;7044;-64
2022/05/19 04:58:27;;;;;;;;;;;;;;;;;;1913033;28;7113;-63
2022/05/19 04:59:24;;;;;;;;;;;;;;;;;;1906105;28;7112;-63
2022/05/19 05:00:22;;;;;;;;;;;;;;;;;;1905960;28;7005;-66
2022/05/19 05:01:20;;;;;;;;;;;;;;;;;;1905107;28;7005;-65
2022/05/19 05:02:17;;;;;;;;;;;;;;;;;;1905779;28;7132;-63
2022/05/19 05:03:15;;;;;;;;;;;;;;;;;;1908048;28;7026;-63
2022/05/19 05:04:14;;;;;;;;;;;;;;;;;;1906132;28;7029;-63
2022/05/19 05:05:12;;;;;;;;;;;;;;;;;;1908652;28;7111;-64
2022/05/19 05:06:09;;;;;;;;;;;;;;;;;;1912293;28;7005;-63
2022/05/19 05:07:06;;;;;;;;;;;;;;;;;;1912983;28;7006;-65
2022/05/19 05:08:04;;;;;;;;;;;;;;;;;;1913107;28;7009;-62
2022/05/19 05:09:02;;;;;;;;;;;;;;;;;;1910751;28;7021;-65
2022/05/19 05:09:59;;;;;;;;;;;;;;;;;;1909959;28;7320;-65
2022/05/19 05:10:57;;;;;;;;;;;;;;;;;;1906276;28;7025;-65
2022/05/19 05:11:54;;;;;;;;;;;;;;;;;;1914062;28;7005;-64
2022/05/19 05:12:52;;;;;;;;;;;;;;;;;;1912536;28;7037;-62
2022/05/19 05:13:49;;;;;;;;;;;;;;;;;;1909963;28;7986;-66
2022/05/19 05:14:47;;;;;;;;;;;;;;;;;;1909431;28;7041;-64
2022/05/19 05:15:45;;;;;;;;;;;;;;;;;;1910684;28;8039;-63
2022/05/19 05:16:45;;;;;;;;;;;;;;;;;;1908797;28;7125;-65
2022/05/19 05:17:42;;;;;;;;;;;;;;;;;;1913064;28;7088;-65
2022/05/19 05:18:41;;;;;;;;;;;;;;;;;;1910708;28;8237;-64
2022/05/19 05:19:38;;;;;;;;;;;;;;;;;;1905389;28;7323;-64
2022/05/19 05:20:37;;;;;;;;;;;;;;;;;;1905520;28;7005;-65
2022/05/19 05:21:35;;;;;;;;;;;;;;;;;;1905482;28;7341;-64
2022/05/19 05:22:35;;;;;;;;;;;;;;;;;;1906674;28;7270;-65
2022/05/19 05:23:33;;;;;;;;;;;;;;;;;;1905309;28;7013;-64
2022/05/19 05:24:32;;;;;;;;;;;;;;;;;;1910258;28;7029;-63
2022/05/19 05:25:29;;;;;;;;;;;;;;;;;;1908776;28;7041;-64
2022/05/19 05:26:27;;;;;;;;;;;;;;;;;;1905236;28;7415;-65
2022/05/19 05:27:24;;;;;;;;;;;;;;;;;;1904656;28;7131;-63
2022/05/19 05:28:22;;;;;;;;;;;;;;;;;;1905180;28;7009;-62
2022/05/19 05:29:22;;;;;;;;;;;;;;;;;;1905334;28;7297;-64
2022/05/19 05:30:19;;;;;;;;;;;;;;;;;;1905270;28;7016;-63
2022/05/19 05:31:16;;;;;;;;;;;;;;;;;;1905461;28;7009;-63
2022/05/19 05:32:14;;;;;;;;;;;;;;;;;;1905013;28;7092;-65
2022/05/19 05:33:11;;;;;;;;;;;;;;;;;;1905858;28;7005;-63
2022/05/19 05:34:09;;;;;;;;;;;;;;;;;;1912745;28;7092;-63
2022/05/19 05:35:08;;;;;;;;;;;;;;;;;;1912658;28;7076;-64
2022/05/19 05:36:06;;;;;;;;;;;;;;;;;;1912554;28;7151;-65
2022/05/19 05:37:04;;;;;;;;;;;;;;;;;;1912007;28;7013;-63
2022/05/19 05:38:01;;;;;;;;;;;;;;;;;;1912394;28;7130;-64
2022/05/19 05:38:59;;;;;;;;;;;;;;;;;;1912283;28;7009;-61
2022/05/19 05:39:56;;;;;;;;;;;;;;;;;;1910151;28;7005;-64
2022/05/19 05:40:54;;;;;;;;;;;;;;;;;;1910281;28;7304;-62
2022/05/19 05:41:51;;;;;;;;;;;;;;;;;;1913053;28;8199;-63
2022/05/19 05:42:48;;;;;;;;;;;;;;;;;;1912489;28;7081;-64
2022/05/19 05:43:46;;;;;;;;;;;;;;;;;;1910715;28;7074;-64
2022/05/19 05:44:43;;;;;;;;;;;;;;;;;;1908684;28;7005;-65
2022/05/19 05:45:41;;;;;;;;;;;;;;;;;;1912562;28;7009;-62
2022/05/19 05:46:40;;;;;;;;;;;;;;;;;;1912449;28;7013;-63
2022/05/19 05:47:37;;;;;;;;;;;;;;;;;;1919812;28;7009;-63
2022/05/19 05:48:42;;;;;;;;;;;;;;;;;;1919365;28;7014;-64
2022/05/19 05:49:39;;;;;;;;;;;;;;;;;;1912685;28;7042;-63
2022/05/19 05:50:37;;;;;;;;;;;;;;;;;;1906950;28;7006;-63
2022/05/19 05:51:34;;;;;;;;;;;;;;;;;;1911787;28;8019;-62
2022/05/19 05:52:32;;;;;;;;;;;;;;;;;;1919252;28;7033;-65
2022/05/19 05:53:29;;;;;;;;;;;;;;;;;;1909547;28;7009;-64
2022/05/19 05:54:26;;;;;;;;;;;;;;;;;;1911002;28;7248;-62
2022/05/19 05:55:24;;;;;;;;;;;;;;;;;;1912438;28;7104;-62
2022/05/19 05:56:22;;;;;;;;;;;;;;;;;;1912307;28;7112;-63
2022/05/19 05:57:20;;;;;;;;;;;;;;;;;;1905706;28;7034;-64
2022/05/19 05:58:17;;;;;;;;;;;;;;;;;;1912339;28;7372;-63
2022/05/19 05:59:14;;;;;;;;;;;;;;;;;;1905389;28;7009;-63
2022/05/19 06:00:12;;;;;;;;;;;;;;;;;;1905159;28;7096;-63
2022/05/19 06:01:11;;;;;;;;;;;;;;;;;;1903760;28;7017;-61
2022/05/19 06:02:09;;;;;;;;;;;;;;;;;;1905001;28;7775;-65
2022/05/19 06:03:07;;;;;;;;;;;;;;;;;;1910673;28;7029;-64
2022/05/19 06:04:04;;;;;;;;;;;;;;;;;;1910176;28;7095;-63
2022/05/19 06:05:02;;;;;;;;;;;;;;;;;;1905823;28;8082;-64
2022/05/19 06:06:01;;;;;;;;;;;;;;;;;;1912676;28;7096;-64
2022/05/19 06:06:59;;;;;;;;;;;;;;;;;;1912364;28;7013;-65
2022/05/19 06:07:56;;;;;;;;;;;;;;;;;;1909331;28;7001;-63
2022/05/19 06:08:53;;;;;;;;;;;;;;;;;;1904923;28;7328;-64
2022/05/19 06:09:56;;;;;;;;;;;;;;;;;;1904520;28;7089;-64
2022/05/19 06:10:54;;;;;;;;;;;;;;;;;;1912056;28;7088;-63
2022/05/19 06:11:52;;;;;;;;;;;;;;;;;;1906569;28;7009;-65
2022/05/19 06:12:49;;;;;;;;;;;;;;;;;;1903161;28;7030;-63
2022/05/19 06:13:50;;;;;;;;;;;;;;;;;;1905042;28;7005;-65
2022/05/19 06:14:47;;;;;;;;;;;;;;;;;;1903659;28;7068;-62
2022/05/19 06:15:45;;;;;;;;;;;;;;;;;;1904815;28;9615;-62
2022/05/19 06:16:43;;;;;;;;;;;;;;;;;;1912153;28;7113;-64
2022/05/19 06:17:41;;;;;;;;;;;;;;;;;;1911937;28;7045;-64
2022/05/19 06:18:38;;;;;;;;;;;;;;;;;;1912220;28;7999;-63
2022/05/19 06:19:36;;;;;;;;;;;;;;;;;;1912228;28;8027;-63
2022/05/19 06:20:34;;;;;;;;;;;;;;;;;;1908278;28;7017;-64
2022/05/19 06:21:36;;;;;;;;;;;;;;;;;;1909065;28;7387;-63
2022/05/19 06:22:34;;;;;;;;;;;;;;;;;;1912164;28;7005;-63
2022/05/19 06:23:32;;;;;;;;;;;;;;;;;;1912080;28;7006;-62
2022/05/19 06:24:32;;;;;;;;;;;;;;;;;;1905216;28;7001;-63
2022/05/19 06:25:29;;;;;;;;;;;;;;;;;;1904324;28;7410;-63
2022/05/19 06:26:30;;;;;;;;;;;;;;;;;;1905070;28;7139;-63
2022/05/19 06:27:27;;;;;;;;;;;;;;;;;;1907651;28;7005;-65
2022/05/19 06:28:25;;;;;;;;;;;;;;;;;;1910053;28;7058;-64
2022/05/19 06:29:26;;;;;;;;;;;;;;;;;;1912073;28;7001;-64
2022/05/19 06:30:23;;;;;;;;;;;;;;;;;;1907757;28;7029;-65
2022/05/19 06:31:22;;;;;;;;;;;;;;;;;;1906339;28;7034;-65
2022/05/19 06:32:19;;;;;;;;;;;;;;;;;;1911819;28;7025;-64
2022/05/19 06:33:18;;;;;;;;;;;;;;;;;;1904329;28;7001;-63
2022/05/19 06:34:16;;;;;;;;;;;;;;;;;;1905470;28;7088;-65
2022/05/19 06:35:18;;;;;;;;;;;;;;;;;;1911553;28;7328;-64
2022/05/19 06:36:16;;;;;;;;;;;;;;;;;;1911312;28;7001;-66
2022/05/19 06:37:13;;;;;;;;;;;;;;;;;;1904626;28;8107;-63
2022/05/19 06:38:11;;;;;;;;;;;;;;;;;;1911569;28;7263;-64
2022/05/19 06:39:09;;;;;;;;;;;;;;;;;;1912291;28;7176;-62
2022/05/19 06:40:09;;;;;;;;;;;;;;;;;;1912202;28;7006;-63
2022/05/19 06:42:25;;;;;;;;;;;;;;;;;;1903792;28;7104;-64
2022/05/19 06:43:24;;;;;;;;;;;;;;;;;;1905577;28;7001;-65
2022/05/19 06:44:22;;;;;;;;;;;;;;;;;;1905248;28;7005;-65
2022/05/19 06:45:26;;;;;;;;;;;;;;;;;;1909550;28;7013;-65
2022/05/19 06:46:23;;;;;;;;;;;;;;;;;;1905038;28;8106;-64
2022/05/19 06:47:21;;;;;;;;;;;;;;;;;;1905200;28;7037;-64
2022/05/19 06:48:19;;;;;;;;;;;;;;;;;;1911870;28;7307;-64
2022/05/19 06:49:17;;;;;;;;;;;;;;;;;;1912623;28;7325;-63
2022/05/19 06:50:15;;;;;;;;;;;;;;;;;;1911984;28;7092;-63
2022/05/19 06:51:12;;;;;;;;;;;;;;;;;;1911898;28;7017;-64
2022/05/19 06:52:20;;;;;;;;;;;;;;;;;;1910339;28;7002;-65
2022/05/19 06:53:18;;;;;;;;;;;;;;;;;;1912291;28;7216;-65
2022/05/19 06:54:15;;;;;;;;;;;;;;;;;;1912115;28;7005;-66